RA67307 UNOO-UACC
Flight info
| Callsign | RA67307 |
|---|---|
| Flight time | 1h 0m |
| Altitude | 30000 |
| Route | N0480F300 ALODA N990 DAKIN M75 OLGAS |
| Aircraft | C500/M-VGDW/C |
Departure
| Time | 2026-04-25 17:57 |
|---|---|
| Airport | Omsk Central Airport (UNOO) |
Arrival
| Time | 2026-04-25 18:57 |
|---|---|
| Airport | Nursultan Nazarbayev International Airport (UACC) |
| Time | Latitude | Longitude | Altitude | Speed | Heading |
|---|---|---|---|---|---|
| 2026-04-25 17:56 | 54.90464 | 73.30214 | 14430 ft | 222 kts | 220° |
| 2026-04-25 17:57 | 54.89256 | 73.28551 | 15268 ft | 225 kts | 217° |
| 2026-04-25 17:57 | 54.87991 | 73.26876 | 16127 ft | 229 kts | 217° |
| 2026-04-25 17:57 | 54.86692 | 73.25128 | 16715 ft | 245 kts | 218° |
| 2026-04-25 17:57 | 54.86256 | 73.24531 | 16936 ft | 247 kts | 218° |
| 2026-04-25 17:58 | 54.83966 | 73.21406 | 18367 ft | 253 kts | 218° |
| 2026-04-25 17:58 | 54.82587 | 73.19539 | 19147 ft | 255 kts | 218° |
| 2026-04-25 17:58 | 54.81184 | 73.17633 | 19964 ft | 257 kts | 218° |
| 2026-04-25 17:58 | 54.80073 | 73.16131 | 20624 ft | 259 kts | 218° |
| 2026-04-25 18:00 | 54.79036 | 73.14723 | 21226 ft | 261 kts | 218° |
| 2026-04-25 18:00 | 54.77612 | 73.12795 | 22062 ft | 264 kts | 218° |
| 2026-04-25 18:00 | 54.76818 | 73.11721 | 22523 ft | 266 kts | 218° |
| 2026-04-25 18:01 | 54.76084 | 73.10733 | 22948 ft | 267 kts | 218° |
| 2026-04-25 18:01 | 54.74618 | 73.08751 | 23739 ft | 270 kts | 218° |
| 2026-04-25 18:01 | 54.73142 | 73.06762 | 24456 ft | 272 kts | 218° |
| 2026-04-25 18:01 | 54.71647 | 73.04743 | 25170 ft | 273 kts | 218° |
| 2026-04-25 18:02 | 54.70136 | 73.02707 | 25858 ft | 275 kts | 218° |
| 2026-04-25 18:02 | 54.68641 | 73.00699 | 26522 ft | 276 kts | 218° |
| 2026-04-25 18:02 | 54.67112 | 72.98641 | 27186 ft | 278 kts | 218° |
| 2026-04-25 18:02 | 54.65574 | 72.96575 | 27841 ft | 280 kts | 218° |
| 2026-04-25 18:03 | 54.64044 | 72.94525 | 28518 ft | 281 kts | 218° |
| 2026-04-25 18:03 | 54.62505 | 72.92460 | 29331 ft | 277 kts | 219° |
| 2026-04-25 18:03 | 54.60960 | 72.90431 | 29813 ft | 285 kts | 216° |
| 2026-04-25 18:03 | 54.59247 | 72.88533 | 29824 ft | 303 kts | 214° |
| 2026-04-25 18:04 | 54.57528 | 72.86600 | 29835 ft | 319 kts | 214° |
| 2026-04-25 18:04 | 54.55646 | 72.84478 | 29836 ft | 333 kts | 214° |
| 2026-04-25 18:04 | 54.53648 | 72.82248 | 29837 ft | 346 kts | 214° |
| 2026-04-25 18:04 | 54.51607 | 72.79974 | 29834 ft | 357 kts | 214° |
| 2026-04-25 18:05 | 54.49480 | 72.77610 | 29836 ft | 366 kts | 214° |
| 2026-04-25 18:05 | 54.45194 | 72.72840 | 29833 ft | 364 kts | 214° |
| 2026-04-25 18:06 | 54.40967 | 72.68148 | 29831 ft | 358 kts | 214° |
| 2026-04-25 18:06 | 54.36824 | 72.63561 | 29834 ft | 354 kts | 214° |
| 2026-04-25 18:07 | 54.32687 | 72.58995 | 29829 ft | 352 kts | 214° |
| 2026-04-25 18:07 | 54.28568 | 72.54459 | 29828 ft | 355 kts | 214° |
| 2026-04-25 18:08 | 54.24346 | 72.49821 | 29832 ft | 365 kts | 214° |
| 2026-04-25 18:08 | 54.20054 | 72.45118 | 29835 ft | 372 kts | 214° |
| 2026-04-25 18:09 | 54.15375 | 72.41076 | 29836 ft | 380 kts | 204° |
| 2026-04-25 18:09 | 54.10249 | 72.38651 | 29835 ft | 388 kts | 195° |
| 2026-04-25 18:10 | 54.04924 | 72.36900 | 29838 ft | 391 kts | 195° |
| 2026-04-25 18:10 | 53.99558 | 72.35131 | 29841 ft | 393 kts | 195° |
| 2026-04-25 18:11 | 53.95103 | 72.33672 | 29843 ft | 394 kts | 195° |
| 2026-04-25 18:11 | 53.89689 | 72.31896 | 29841 ft | 395 kts | 195° |
| 2026-04-25 18:12 | 53.84302 | 72.30136 | 29843 ft | 396 kts | 195° |
| 2026-04-25 18:12 | 53.78880 | 72.28369 | 29834 ft | 397 kts | 195° |
| 2026-04-25 18:13 | 53.73439 | 72.26602 | 29840 ft | 398 kts | 195° |
| 2026-04-25 18:13 | 53.68008 | 72.24844 | 29833 ft | 399 kts | 195° |
| 2026-04-25 18:14 | 53.59833 | 72.22230 | 29840 ft | 400 kts | 194° |
| 2026-04-25 18:14 | 53.54341 | 72.20551 | 29830 ft | 401 kts | 194° |
| 2026-04-25 18:15 | 53.48839 | 72.18841 | 29847 ft | 401 kts | 194° |
| 2026-04-25 18:15 | 53.43362 | 72.17158 | 29841 ft | 402 kts | 194° |
| 2026-04-25 18:16 | 53.37853 | 72.15460 | 29854 ft | 402 kts | 194° |
| 2026-04-25 18:17 | 53.29591 | 72.12930 | 29859 ft | 403 kts | 194° |
| 2026-04-25 18:17 | 53.24097 | 72.11252 | 29862 ft | 403 kts | 194° |
| 2026-04-25 18:18 | 53.18542 | 72.09559 | 29869 ft | 404 kts | 194° |
| 2026-04-25 18:18 | 53.13039 | 72.07885 | 29870 ft | 404 kts | 194° |
| 2026-04-25 18:19 | 53.07507 | 72.06207 | 29873 ft | 405 kts | 194° |
| 2026-04-25 18:19 | 53.01981 | 72.04537 | 29871 ft | 405 kts | 194° |
| 2026-04-25 18:20 | 52.96425 | 72.02866 | 29871 ft | 406 kts | 194° |
| 2026-04-25 18:20 | 52.90840 | 72.01194 | 29872 ft | 406 kts | 194° |
| 2026-04-25 18:21 | 52.85281 | 71.99531 | 29525 ft | 404 kts | 194° |
| 2026-04-25 18:21 | 52.82581 | 71.98729 | 29102 ft | 390 kts | 194° |
| 2026-04-25 18:21 | 52.79932 | 71.97943 | 28679 ft | 378 kts | 194° |
| 2026-04-25 18:21 | 52.77390 | 71.97184 | 28263 ft | 369 kts | 194° |
| 2026-04-25 18:22 | 52.74877 | 71.96431 | 27846 ft | 361 kts | 194° |
| 2026-04-25 18:22 | 52.73263 | 71.95954 | 27583 ft | 357 kts | 194° |
| 2026-04-25 18:22 | 52.70030 | 71.94992 | 27046 ft | 350 kts | 194° |
| 2026-04-25 18:22 | 52.67632 | 71.94285 | 26648 ft | 346 kts | 194° |
| 2026-04-25 18:23 | 52.65284 | 71.93587 | 26264 ft | 343 kts | 194° |
| 2026-04-25 18:23 | 52.62977 | 71.92802 | 25888 ft | 339 kts | 197° |
| 2026-04-25 18:23 | 52.60649 | 71.92047 | 25510 ft | 340 kts | 195° |
| 2026-04-25 18:23 | 52.58311 | 71.91318 | 25145 ft | 341 kts | 195° |
| 2026-04-25 18:24 | 52.55988 | 71.90564 | 24786 ft | 343 kts | 195° |
| 2026-04-25 18:24 | 52.53631 | 71.89773 | 24437 ft | 346 kts | 196° |
| 2026-04-25 18:24 | 52.51280 | 71.89004 | 24085 ft | 348 kts | 195° |
| 2026-04-25 18:24 | 52.48883 | 71.88222 | 23737 ft | 350 kts | 195° |
| 2026-04-25 18:25 | 52.46507 | 71.87453 | 23382 ft | 351 kts | 195° |
| 2026-04-25 18:25 | 52.44104 | 71.86666 | 22974 ft | 351 kts | 195° |
| 2026-04-25 18:25 | 52.41707 | 71.85885 | 22572 ft | 350 kts | 195° |
| 2026-04-25 18:25 | 52.39348 | 71.85120 | 22178 ft | 349 kts | 195° |
| 2026-04-25 18:26 | 52.36942 | 71.84335 | 21781 ft | 348 kts | 195° |
| 2026-04-25 18:26 | 52.34578 | 71.83572 | 21396 ft | 348 kts | 195° |
| 2026-04-25 18:26 | 52.32184 | 71.82788 | 21029 ft | 351 kts | 191° |
| 2026-04-25 18:26 | 52.29780 | 71.82016 | 20651 ft | 357 kts | 191° |
| 2026-04-25 18:27 | 52.27318 | 71.81216 | 20273 ft | 361 kts | 191° |
| 2026-04-25 18:27 | 52.24866 | 71.80428 | 19903 ft | 365 kts | 191° |
| 2026-04-25 18:27 | 52.22374 | 71.79619 | 19534 ft | 367 kts | 191° |
| 2026-04-25 18:27 | 52.19846 | 71.78807 | 19158 ft | 369 kts | 191° |
| 2026-04-25 18:28 | 52.17312 | 71.77990 | 18785 ft | 369 kts | 191° |
| 2026-04-25 18:28 | 52.14818 | 71.77187 | 18418 ft | 370 kts | 191° |
| 2026-04-25 18:28 | 52.12277 | 71.76372 | 18043 ft | 370 kts | 191° |
| 2026-04-25 18:29 | 52.07315 | 71.75035 | 17290 ft | 354 kts | 183° |
| 2026-04-25 18:29 | 52.04871 | 71.74802 | 16915 ft | 348 kts | 184° |
| 2026-04-25 18:30 | 51.97759 | 71.74818 | 15784 ft | 337 kts | 178° |
| 2026-04-25 18:30 | 51.95415 | 71.74875 | 15403 ft | 334 kts | 180° |
| 2026-04-25 18:30 | 51.93091 | 71.74882 | 15027 ft | 332 kts | 180° |
| 2026-04-25 18:30 | 51.90801 | 71.74924 | 14654 ft | 331 kts | 179° |
| 2026-04-25 18:31 | 51.88504 | 71.74985 | 14277 ft | 329 kts | 179° |
| 2026-04-25 18:31 | 51.86213 | 71.75045 | 13901 ft | 328 kts | 180° |
| 2026-04-25 18:31 | 51.83963 | 71.75090 | 13531 ft | 327 kts | 179° |
| 2026-04-25 18:31 | 51.81678 | 71.75138 | 13153 ft | 326 kts | 180° |
| 2026-04-25 18:32 | 51.79412 | 71.75190 | 12778 ft | 325 kts | 179° |
| 2026-04-25 18:32 | 51.77151 | 71.75238 | 12404 ft | 324 kts | 180° |
| 2026-04-25 18:32 | 51.74918 | 71.75292 | 12033 ft | 324 kts | 179° |
| 2026-04-25 18:32 | 51.72668 | 71.75336 | 11658 ft | 320 kts | 179° |
| 2026-04-25 18:33 | 51.70491 | 71.75390 | 11280 ft | 304 kts | 179° |
| 2026-04-25 18:33 | 51.68410 | 71.75430 | 10899 ft | 296 kts | 179° |
| 2026-04-25 18:33 | 51.66333 | 71.75481 | 10517 ft | 306 kts | 180° |
| 2026-04-25 18:33 | 51.64193 | 71.75522 | 10196 ft | 313 kts | 179° |
| 2026-04-25 18:34 | 51.62011 | 71.75575 | 9897 ft | 312 kts | 180° |
| 2026-04-25 18:34 | 51.59835 | 71.75620 | 9598 ft | 311 kts | 179° |
| 2026-04-25 18:34 | 51.57691 | 71.75669 | 9302 ft | 311 kts | 180° |
| 2026-04-25 18:34 | 51.55524 | 71.75716 | 9003 ft | 310 kts | 179° |
| 2026-04-25 18:35 | 51.53371 | 71.75762 | 8705 ft | 310 kts | 180° |
| 2026-04-25 18:35 | 51.51206 | 71.75812 | 8404 ft | 307 kts | 179° |
| 2026-04-25 18:35 | 51.49137 | 71.75854 | 8104 ft | 291 kts | 180° |
| 2026-04-25 18:35 | 51.47156 | 71.75903 | 7798 ft | 276 kts | 179° |
| 2026-04-25 18:36 | 51.45267 | 71.75937 | 7487 ft | 266 kts | 180° |
| 2026-04-25 18:36 | 51.43465 | 71.75983 | 7180 ft | 258 kts | 180° |
| 2026-04-25 18:36 | 51.41678 | 71.76017 | 6872 ft | 252 kts | 179° |
| 2026-04-25 18:36 | 51.39950 | 71.76057 | 6561 ft | 251 kts | 180° |
| 2026-04-25 18:37 | 51.38190 | 71.76095 | 6255 ft | 253 kts | 179° |
| 2026-04-25 18:37 | 51.36418 | 71.76130 | 5948 ft | 254 kts | 180° |
| 2026-04-25 18:37 | 51.34640 | 71.76156 | 5649 ft | 255 kts | 180° |
| 2026-04-25 18:37 | 51.32882 | 71.76173 | 5352 ft | 255 kts | 180° |
| 2026-04-25 18:38 | 51.31131 | 71.76192 | 5050 ft | 246 kts | 180° |
| 2026-04-25 18:38 | 51.29454 | 71.76212 | 4748 ft | 240 kts | 180° |
| 2026-04-25 18:38 | 51.27800 | 71.76229 | 4442 ft | 235 kts | 180° |
| 2026-04-25 18:38 | 51.26171 | 71.76252 | 4136 ft | 231 kts | 180° |
| 2026-04-25 18:39 | 51.24580 | 71.76269 | 3954 ft | 224 kts | 180° |
| 2026-04-25 18:39 | 51.23075 | 71.76292 | 3901 ft | 213 kts | 180° |
| 2026-04-25 18:39 | 51.21612 | 71.76270 | 3875 ft | 203 kts | 189° |
| 2026-04-25 18:39 | 51.20463 | 71.75176 | 3874 ft | 194 kts | 226° |
| 2026-04-25 18:40 | 51.19538 | 71.73722 | 3891 ft | 184 kts | 224° |
| 2026-04-25 18:40 | 51.18640 | 71.72290 | 3893 ft | 181 kts | 225° |
| 2026-04-25 18:40 | 51.17762 | 71.70912 | 3886 ft | 169 kts | 224° |
| 2026-04-25 18:40 | 51.16961 | 71.69657 | 3874 ft | 155 kts | 224° |
| 2026-04-25 18:41 | 51.16215 | 71.68488 | 3873 ft | 146 kts | 224° |
| 2026-04-25 18:41 | 51.15504 | 71.67374 | 3873 ft | 140 kts | 225° |
| 2026-04-25 18:41 | 51.14829 | 71.66300 | 3874 ft | 136 kts | 224° |
| 2026-04-25 18:41 | 51.14154 | 71.65240 | 3875 ft | 134 kts | 224° |
| 2026-04-25 18:42 | 51.13522 | 71.64257 | 3874 ft | 122 kts | 225° |
| 2026-04-25 18:42 | 51.13319 | 71.63935 | 3875 ft | 120 kts | 225° |
| 2026-04-25 18:42 | 51.12371 | 71.62442 | 3873 ft | 113 kts | 224° |
| 2026-04-25 18:42 | 51.11813 | 71.61576 | 3874 ft | 111 kts | 225° |
| 2026-04-25 18:43 | 51.11271 | 71.60733 | 3875 ft | 109 kts | 224° |
| 2026-04-25 18:43 | 51.10735 | 71.59872 | 3875 ft | 109 kts | 224° |
| 2026-04-25 18:43 | 51.10182 | 71.59013 | 3882 ft | 118 kts | 225° |
| 2026-04-25 18:43 | 51.09502 | 71.57940 | 4012 ft | 169 kts | 225° |
| 2026-04-25 18:44 | 51.08510 | 71.56366 | 4127 ft | 222 kts | 225° |
| 2026-04-25 18:44 | 51.07373 | 71.54604 | 4123 ft | 232 kts | 218° |
| 2026-04-25 18:44 | 51.05862 | 71.53934 | 4384 ft | 239 kts | 174° |
| 2026-04-25 18:44 | 51.04309 | 71.55072 | 4700 ft | 256 kts | 140° |
| 2026-04-25 18:45 | 51.03071 | 71.57141 | 5013 ft | 257 kts | 132° |
| 2026-04-25 18:45 | 51.01923 | 71.59272 | 5301 ft | 257 kts | 130° |
| 2026-04-25 18:45 | 51.00779 | 71.61472 | 5586 ft | 258 kts | 130° |
| 2026-04-25 18:45 | 50.99640 | 71.63684 | 5861 ft | 258 kts | 129° |
| 2026-04-25 18:46 | 50.98955 | 71.66269 | 6010 ft | 264 kts | 95° |
| 2026-04-25 18:46 | 50.99376 | 71.69059 | 6055 ft | 264 kts | 59° |
| 2026-04-25 18:46 | 51.00611 | 71.71232 | 6085 ft | 265 kts | 43° |
| 2026-04-25 18:46 | 51.01991 | 71.73190 | 6096 ft | 266 kts | 40° |
| 2026-04-25 18:47 | 51.03412 | 71.75098 | 6097 ft | 268 kts | 40° |
| 2026-04-25 18:47 | 51.04824 | 71.76984 | 6096 ft | 265 kts | 40° |
| 2026-04-25 18:47 | 51.06218 | 71.78837 | 6097 ft | 262 kts | 40° |
| 2026-04-25 18:47 | 51.07621 | 71.80701 | 6086 ft | 261 kts | 40° |
| 2026-04-25 18:48 | 51.09016 | 71.82564 | 6092 ft | 260 kts | 40° |
| 2026-04-25 18:48 | 51.10389 | 71.84387 | 6096 ft | 259 kts | 40° |
| 2026-04-25 18:48 | 51.11781 | 71.86245 | 6091 ft | 259 kts | 40° |
| 2026-04-25 18:48 | 51.13128 | 71.88040 | 6093 ft | 251 kts | 40° |
| 2026-04-25 18:49 | 51.14462 | 71.89815 | 6088 ft | 245 kts | 39° |
| 2026-04-25 18:49 | 51.15966 | 71.90866 | 5991 ft | 243 kts | 4° |
| 2026-04-25 18:49 | 51.17575 | 71.90195 | 5770 ft | 242 kts | 325° |
| 2026-04-25 18:49 | 51.18570 | 71.88084 | 5559 ft | 241 kts | 287° |
| 2026-04-25 18:50 | 51.18638 | 71.85470 | 5362 ft | 239 kts | 263° |
| 2026-04-25 18:50 | 51.18417 | 71.82825 | 5166 ft | 239 kts | 261° |
| 2026-04-25 18:50 | 51.18156 | 71.80226 | 4971 ft | 238 kts | 263° |
| 2026-04-25 18:50 | 51.18104 | 71.77599 | 4774 ft | 238 kts | 266° |
| 2026-04-25 18:51 | 51.17859 | 71.74990 | 4576 ft | 238 kts | 257° |
| 2026-04-25 18:51 | 51.17723 | 71.74122 | 4509 ft | 238 kts | 254° |
| 2026-04-25 18:51 | 51.16643 | 71.70094 | 4178 ft | 238 kts | 239° |
| 2026-04-25 18:51 | 51.15662 | 71.68030 | 3986 ft | 234 kts | 227° |
| 2026-04-25 18:52 | 51.14543 | 71.66214 | 3934 ft | 224 kts | 225° |
| 2026-04-25 18:52 | 51.13455 | 71.64500 | 3905 ft | 215 kts | 224° |
| 2026-04-25 18:52 | 51.12469 | 71.62935 | 3894 ft | 191 kts | 225° |
| 2026-04-25 18:52 | 51.11580 | 71.61520 | 3833 ft | 160 kts | 225° |
| 2026-04-25 18:53 | 51.10897 | 71.60429 | 3657 ft | 124 kts | 225° |
| 2026-04-25 18:53 | 51.10306 | 71.59480 | 3375 ft | 118 kts | 225° |
| 2026-04-25 18:53 | 51.09735 | 71.58579 | 3086 ft | 115 kts | 225° |
| 2026-04-25 18:53 | 51.09171 | 71.57680 | 2846 ft | 113 kts | 224° |
| 2026-04-25 18:54 | 51.08065 | 71.55920 | 2534 ft | 112 kts | 226° |
| 2026-04-25 18:54 | 51.07519 | 71.55050 | 2403 ft | 113 kts | 224° |
| 2026-04-25 18:54 | 51.06961 | 71.54153 | 2269 ft | 113 kts | 225° |
| 2026-04-25 18:55 | 51.06400 | 71.53269 | 2139 ft | 113 kts | 226° |
| 2026-04-25 18:55 | 51.05845 | 71.52388 | 1991 ft | 115 kts | 224° |
| 2026-04-25 18:55 | 51.05280 | 71.51480 | 1826 ft | 115 kts | 225° |
| 2026-04-25 18:55 | 51.04715 | 71.50586 | 1653 ft | 114 kts | 226° |
| 2026-04-25 18:56 | 51.04156 | 71.49676 | 1444 ft | 116 kts | 227° |
| 2026-04-25 18:56 | 51.03622 | 71.48736 | 1240 ft | 115 kts | 223° |
| 2026-04-25 18:56 | 51.03069 | 71.47891 | 1164 ft | 98 kts | 225° |
| 2026-04-25 18:56 | 51.02668 | 71.47264 | 1159 ft | 51 kts | 225° |
| 2026-04-25 18:57 | 51.02649 | 71.47089 | 1159 ft | 13 kts | 313° |
| 2026-04-25 18:57 | 51.02693 | 71.47018 | 1158 ft | 0 kts | 315° |
| 2026-04-25 18:58 | 51.02725 | 71.46959 | 1158 ft | 13 kts | 301° |
| 2026-04-25 18:58 | 51.02667 | 71.46795 | 1158 ft | 22 kts | 224° |
| 2026-04-25 18:59 | 51.02476 | 71.46501 | 1158 ft | 17 kts | 224° |
| 2026-04-25 18:59 | 51.02291 | 71.46217 | 1158 ft | 20 kts | 224° |
| 2026-04-25 19:00 | 51.02086 | 71.45895 | 1158 ft | 22 kts | 226° |
| 2026-04-25 19:00 | 51.01981 | 71.45724 | 1158 ft | 16 kts | 249° |
| 2026-04-25 19:01 | 51.02083 | 71.45604 | 1158 ft | 17 kts | 50° |
| 2026-04-25 19:01 | 51.02143 | 71.45586 | 1157 ft | 9 kts | 315° |
| 2026-04-25 19:01 | 51.02190 | 71.45511 | 1157 ft | 10 kts | 315° |
| 2026-04-25 19:01 | 51.02229 | 71.45496 | 1157 ft | 4 kts | 51° |
| 2026-04-25 19:02 | 51.02241 | 71.45515 | 1157 ft | 0 kts | 44° |